sensor_id;sensor_type;location;lat;lon;timestamp;P1;durP1;ratioP1;P2;durP2;ratioP2
3700;SDS011;1866;48.374;10.766;2023-03-23T00:01:27;98.37;;;6.40;;
3700;SDS011;1866;48.374;10.766;2023-03-23T00:03:57;99.20;;;6.83;;
3700;SDS011;1866;48.374;10.766;2023-03-23T00:06:25;103.13;;;7.17;;
3700;SDS011;1866;48.374;10.766;2023-03-23T00:08:58;99.10;;;6.43;;
3700;SDS011;1866;48.374;10.766;2023-03-23T00:11:27;100.20;;;6.80;;
3700;SDS011;1866;48.374;10.766;2023-03-23T00:13:57;99.03;;;6.83;;
3700;SDS011;1866;48.374;10.766;2023-03-23T00:16:26;100.60;;;6.50;;
3700;SDS011;1866;48.374;10.766;2023-03-23T00:18:55;100.27;;;6.80;;
3700;SDS011;1866;48.374;10.766;2023-03-23T00:21:23;100.07;;;6.90;;
3700;SDS011;1866;48.374;10.766;2023-03-23T00:24:00;99.77;;;6.70;;
3700;SDS011;1866;48.374;10.766;2023-03-23T00:26:29;100.57;;;6.97;;
3700;SDS011;1866;48.374;10.766;2023-03-23T00:29:00;100.80;;;7.27;;
3700;SDS011;1866;48.374;10.766;2023-03-23T00:31:28;98.80;;;6.50;;
3700;SDS011;1866;48.374;10.766;2023-03-23T00:34:00;101.37;;;6.57;;
3700;SDS011;1866;48.374;10.766;2023-03-23T00:36:28;99.30;;;6.20;;
3700;SDS011;1866;48.374;10.766;2023-03-23T00:38:56;100.27;;;6.53;;
3700;SDS011;1866;48.374;10.766;2023-03-23T00:41:24;98.00;;;6.57;;
3700;SDS011;1866;48.374;10.766;2023-03-23T00:43:53;101.43;;;6.77;;
3700;SDS011;1866;48.374;10.766;2023-03-23T00:46:22;99.07;;;6.53;;
3700;SDS011;1866;48.374;10.766;2023-03-23T00:48:49;98.93;;;6.40;;
3700;SDS011;1866;48.374;10.766;2023-03-23T00:51:16;98.27;;;6.63;;
3700;SDS011;1866;48.374;10.766;2023-03-23T00:53:44;100.80;;;6.53;;
3700;SDS011;1866;48.374;10.766;2023-03-23T00:56:11;99.17;;;6.90;;
3700;SDS011;1866;48.374;10.766;2023-03-23T00:58:38;97.87;;;6.20;;
3700;SDS011;1866;48.374;10.766;2023-03-23T01:01:07;98.20;;;6.37;;
3700;SDS011;1866;48.374;10.766;2023-03-23T01:03:36;98.97;;;6.67;;
3700;SDS011;1866;48.374;10.766;2023-03-23T01:06:04;98.30;;;6.77;;
3700;SDS011;1866;48.374;10.766;2023-03-23T01:08:37;99.43;;;6.80;;
3700;SDS011;1866;48.374;10.766;2023-03-23T01:11:10;99.67;;;6.57;;
3700;SDS011;1866;48.374;10.766;2023-03-23T01:13:39;100.97;;;7.20;;
3700;SDS011;1866;48.374;10.766;2023-03-23T01:16:06;98.30;;;6.70;;
3700;SDS011;1866;48.374;10.766;2023-03-23T01:18:33;98.00;;;6.37;;
3700;SDS011;1866;48.374;10.766;2023-03-23T01:21:04;97.90;;;6.50;;
3700;SDS011;1866;48.374;10.766;2023-03-23T01:23:32;99.23;;;7.30;;
3700;SDS011;1866;48.374;10.766;2023-03-23T01:26:02;98.80;;;6.93;;
3700;SDS011;1866;48.374;10.766;2023-03-23T01:28:30;99.77;;;7.23;;
3700;SDS011;1866;48.374;10.766;2023-03-23T01:30:59;101.73;;;7.07;;
3700;SDS011;1866;48.374;10.766;2023-03-23T01:33:28;101.07;;;7.50;;
3700;SDS011;1866;48.374;10.766;2023-03-23T01:35:55;98.10;;;7.07;;
3700;SDS011;1866;48.374;10.766;2023-03-23T01:38:23;103.97;;;7.63;;
3700;SDS011;1866;48.374;10.766;2023-03-23T01:40:50;101.43;;;7.60;;
3700;SDS011;1866;48.374;10.766;2023-03-23T01:43:17;98.67;;;6.50;;
3700;SDS011;1866;48.374;10.766;2023-03-23T01:45:45;97.90;;;6.40;;
3700;SDS011;1866;48.374;10.766;2023-03-23T01:48:13;99.17;;;7.20;;
3700;SDS011;1866;48.374;10.766;2023-03-23T01:50:47;97.87;;;6.30;;
3700;SDS011;1866;48.374;10.766;2023-03-23T01:53:17;99.90;;;6.70;;
3700;SDS011;1866;48.374;10.766;2023-03-23T01:55:46;98.30;;;6.27;;
3700;SDS011;1866;48.374;10.766;2023-03-23T01:58:16;100.37;;;7.60;;
3700;SDS011;1866;48.374;10.766;2023-03-23T02:00:45;98.23;;;6.30;;
3700;SDS011;1866;48.374;10.766;2023-03-23T02:03:13;100.23;;;7.07;;
3700;SDS011;1866;48.374;10.766;2023-03-23T02:05:42;99.10;;;6.93;;
3700;SDS011;1866;48.374;10.766;2023-03-23T02:08:09;105.47;;;7.00;;
3700;SDS011;1866;48.374;10.766;2023-03-23T02:10:39;98.97;;;7.13;;
3700;SDS011;1866;48.374;10.766;2023-03-23T02:13:08;107.70;;;7.83;;
3700;SDS011;1866;48.374;10.766;2023-03-23T02:15:45;98.87;;;6.53;;
3700;SDS011;1866;48.374;10.766;2023-03-23T02:18:23;99.20;;;6.90;;
3700;SDS011;1866;48.374;10.766;2023-03-23T02:24:23;98.80;;;6.87;;
3700;SDS011;1866;48.374;10.766;2023-03-23T02:27:02;99.37;;;7.03;;
3700;SDS011;1866;48.374;10.766;2023-03-23T02:32:29;99.33;;;7.00;;
3700;SDS011;1866;48.374;10.766;2023-03-23T02:35:16;104.50;;;7.40;;
3700;SDS011;1866;48.374;10.766;2023-03-23T02:37:46;99.47;;;7.13;;
3700;SDS011;1866;48.374;10.766;2023-03-23T02:40:17;98.13;;;6.57;;
3700;SDS011;1866;48.374;10.766;2023-03-23T02:42:47;99.67;;;6.93;;
3700;SDS011;1866;48.374;10.766;2023-03-23T02:45:17;100.77;;;6.70;;
3700;SDS011;1866;48.374;10.766;2023-03-23T02:47:49;99.93;;;7.17;;
3700;SDS011;1866;48.374;10.766;2023-03-23T02:50:20;99.27;;;6.70;;
3700;SDS011;1866;48.374;10.766;2023-03-23T02:52:50;99.50;;;6.40;;
3700;SDS011;1866;48.374;10.766;2023-03-23T02:55:20;98.97;;;6.73;;
3700;SDS011;1866;48.374;10.766;2023-03-23T02:57:49;100.47;;;6.53;;
3700;SDS011;1866;48.374;10.766;2023-03-23T03:00:18;98.47;;;6.17;;
3700;SDS011;1866;48.374;10.766;2023-03-23T03:02:45;106.43;;;7.07;;
3700;SDS011;1866;48.374;10.766;2023-03-23T03:05:18;107.70;;;7.33;;
3700;SDS011;1866;48.374;10.766;2023-03-23T03:08:05;100.90;;;7.07;;
3700;SDS011;1866;48.374;10.766;2023-03-23T03:10:42;98.90;;;6.93;;
3700;SDS011;1866;48.374;10.766;2023-03-23T03:13:18;98.47;;;6.27;;
3700;SDS011;1866;48.374;10.766;2023-03-23T03:15:53;98.60;;;6.60;;
3700;SDS011;1866;48.374;10.766;2023-03-23T03:18:24;100.43;;;6.80;;
3700;SDS011;1866;48.374;10.766;2023-03-23T03:20:58;99.97;;;7.00;;
3700;SDS011;1866;48.374;10.766;2023-03-23T03:23:28;100.50;;;6.80;;
3700;SDS011;1866;48.374;10.766;2023-03-23T03:25:57;103.37;;;7.63;;
3700;SDS011;1866;48.374;10.766;2023-03-23T03:28:25;99.90;;;7.10;;
3700;SDS011;1866;48.374;10.766;2023-03-23T03:30:55;98.70;;;6.40;;
3700;SDS011;1866;48.374;10.766;2023-03-23T03:33:25;100.00;;;6.83;;
3700;SDS011;1866;48.374;10.766;2023-03-23T03:35:57;99.07;;;6.70;;
3700;SDS011;1866;48.374;10.766;2023-03-23T03:38:27;98.20;;;6.20;;
3700;SDS011;1866;48.374;10.766;2023-03-23T03:40:56;99.77;;;6.80;;
3700;SDS011;1866;48.374;10.766;2023-03-23T03:43:23;99.37;;;7.23;;
3700;SDS011;1866;48.374;10.766;2023-03-23T03:45:50;98.70;;;6.87;;
3700;SDS011;1866;48.374;10.766;2023-03-23T03:48:17;99.80;;;6.70;;
3700;SDS011;1866;48.374;10.766;2023-03-23T03:50:44;99.07;;;6.80;;
3700;SDS011;1866;48.374;10.766;2023-03-23T03:53:12;106.43;;;7.07;;
3700;SDS011;1866;48.374;10.766;2023-03-23T03:55:39;99.23;;;6.90;;
3700;SDS011;1866;48.374;10.766;2023-03-23T03:58:10;100.47;;;7.57;;
3700;SDS011;1866;48.374;10.766;2023-03-23T04:00:37;105.03;;;7.60;;
3700;SDS011;1866;48.374;10.766;2023-03-23T04:03:05;103.00;;;7.27;;
3700;SDS011;1866;48.374;10.766;2023-03-23T04:05:32;98.67;;;6.67;;
3700;SDS011;1866;48.374;10.766;2023-03-23T04:07:59;102.07;;;7.33;;
3700;SDS011;1866;48.374;10.766;2023-03-23T04:10:29;101.47;;;7.00;;
3700;SDS011;1866;48.374;10.766;2023-03-23T04:12:57;99.27;;;6.50;;
3700;SDS011;1866;48.374;10.766;2023-03-23T04:15:24;100.67;;;7.20;;
3700;SDS011;1866;48.374;10.766;2023-03-23T04:17:51;100.77;;;6.87;;
3700;SDS011;1866;48.374;10.766;2023-03-23T04:20:18;98.47;;;6.53;;
3700;SDS011;1866;48.374;10.766;2023-03-23T04:22:45;100.90;;;6.63;;
3700;SDS011;1866;48.374;10.766;2023-03-23T04:25:14;101.00;;;6.70;;
3700;SDS011;1866;48.374;10.766;2023-03-23T04:27:43;101.33;;;6.80;;
3700;SDS011;1866;48.374;10.766;2023-03-23T04:30:12;113.97;;;9.40;;
3700;SDS011;1866;48.374;10.766;2023-03-23T04:32:39;116.80;;;11.50;;
3700;SDS011;1866;48.374;10.766;2023-03-23T04:35:07;108.03;;;9.40;;
3700;SDS011;1866;48.374;10.766;2023-03-23T04:37:36;103.60;;;7.80;;
3700;SDS011;1866;48.374;10.766;2023-03-23T04:40:04;103.37;;;7.30;;
3700;SDS011;1866;48.374;10.766;2023-03-23T04:42:36;102.37;;;6.73;;
3700;SDS011;1866;48.374;10.766;2023-03-23T04:45:06;102.20;;;7.57;;
3700;SDS011;1866;48.374;10.766;2023-03-23T04:47:35;101.40;;;6.57;;
3700;SDS011;1866;48.374;10.766;2023-03-23T04:50:06;98.97;;;6.20;;
3700;SDS011;1866;48.374;10.766;2023-03-23T04:52:34;99.00;;;6.63;;
3700;SDS011;1866;48.374;10.766;2023-03-23T04:55:05;100.27;;;6.43;;
3700;SDS011;1866;48.374;10.766;2023-03-23T04:57:34;100.47;;;6.73;;
3700;SDS011;1866;48.374;10.766;2023-03-23T05:00:02;105.20;;;7.00;;
3700;SDS011;1866;48.374;10.766;2023-03-23T05:02:33;99.77;;;6.40;;
3700;SDS011;1866;48.374;10.766;2023-03-23T05:05:01;99.17;;;6.10;;
3700;SDS011;1866;48.374;10.766;2023-03-23T05:07:28;100.07;;;6.60;;
3700;SDS011;1866;48.374;10.766;2023-03-23T05:09:55;97.50;;;6.20;;
3700;SDS011;1866;48.374;10.766;2023-03-23T05:12:21;100.20;;;6.43;;
3700;SDS011;1866;48.374;10.766;2023-03-23T05:14:48;99.07;;;6.10;;
3700;SDS011;1866;48.374;10.766;2023-03-23T05:17:17;98.80;;;5.87;;
3700;SDS011;1866;48.374;10.766;2023-03-23T05:19:44;98.70;;;5.90;;
3700;SDS011;1866;48.374;10.766;2023-03-23T05:22:12;99.13;;;5.63;;
3700;SDS011;1866;48.374;10.766;2023-03-23T05:24:39;100.27;;;6.43;;
3700;SDS011;1866;48.374;10.766;2023-03-23T05:27:07;99.60;;;5.63;;
3700;SDS011;1866;48.374;10.766;2023-03-23T05:29:35;99.93;;;5.80;;
3700;SDS011;1866;48.374;10.766;2023-03-23T05:32:02;98.57;;;6.33;;
3700;SDS011;1866;48.374;10.766;2023-03-23T05:34:32;99.27;;;5.70;;
3700;SDS011;1866;48.374;10.766;2023-03-23T05:36:59;99.37;;;5.80;;
3700;SDS011;1866;48.374;10.766;2023-03-23T05:39:26;104.13;;;6.30;;
3700;SDS011;1866;48.374;10.766;2023-03-23T05:41:54;99.27;;;6.10;;
3700;SDS011;1866;48.374;10.766;2023-03-23T05:44:22;100.50;;;6.23;;
3700;SDS011;1866;48.374;10.766;2023-03-23T05:46:49;108.37;;;6.07;;
3700;SDS011;1866;48.374;10.766;2023-03-23T05:49:16;101.20;;;6.60;;
3700;SDS011;1866;48.374;10.766;2023-03-23T05:51:45;100.47;;;6.50;;
3700;SDS011;1866;48.374;10.766;2023-03-23T05:54:12;100.13;;;5.97;;
3700;SDS011;1866;48.374;10.766;2023-03-23T05:56:40;100.27;;;6.17;;
3700;SDS011;1866;48.374;10.766;2023-03-23T05:59:07;100.10;;;6.20;;
3700;SDS011;1866;48.374;10.766;2023-03-23T06:01:35;99.37;;;6.10;;
3700;SDS011;1866;48.374;10.766;2023-03-23T06:04:02;100.10;;;5.87;;
3700;SDS011;1866;48.374;10.766;2023-03-23T06:06:29;98.63;;;5.83;;
3700;SDS011;1866;48.374;10.766;2023-03-23T06:08:59;98.57;;;5.57;;
3700;SDS011;1866;48.374;10.766;2023-03-23T06:11:26;98.40;;;5.87;;
3700;SDS011;1866;48.374;10.766;2023-03-23T06:13:52;99.80;;;5.83;;
3700;SDS011;1866;48.374;10.766;2023-03-23T06:16:19;99.47;;;5.50;;
3700;SDS011;1866;48.374;10.766;2023-03-23T06:18:46;101.73;;;7.27;;
3700;SDS011;1866;48.374;10.766;2023-03-23T06:21:13;104.17;;;6.33;;
3700;SDS011;1866;48.374;10.766;2023-03-23T06:23:40;99.60;;;5.90;;
3700;SDS011;1866;48.374;10.766;2023-03-23T06:26:10;99.50;;;5.80;;
3700;SDS011;1866;48.374;10.766;2023-03-23T06:28:41;99.90;;;6.13;;
3700;SDS011;1866;48.374;10.766;2023-03-23T06:31:08;100.57;;;6.67;;
3700;SDS011;1866;48.374;10.766;2023-03-23T06:33:35;101.30;;;6.23;;
3700;SDS011;1866;48.374;10.766;2023-03-23T06:36:03;99.67;;;6.43;;
3700;SDS011;1866;48.374;10.766;2023-03-23T06:38:31;100.40;;;5.90;;
3700;SDS011;1866;48.374;10.766;2023-03-23T06:40:58;98.83;;;5.60;;
3700;SDS011;1866;48.374;10.766;2023-03-23T06:43:26;110.60;;;6.50;;
3700;SDS011;1866;48.374;10.766;2023-03-23T06:45:53;101.77;;;5.93;;
3700;SDS011;1866;48.374;10.766;2023-03-23T06:48:20;98.77;;;5.83;;
3700;SDS011;1866;48.374;10.766;2023-03-23T06:50:47;98.43;;;5.83;;
3700;SDS011;1866;48.374;10.766;2023-03-23T06:53:14;101.63;;;6.40;;
3700;SDS011;1866;48.374;10.766;2023-03-23T06:55:42;101.83;;;6.33;;
3700;SDS011;1866;48.374;10.766;2023-03-23T06:58:09;102.70;;;6.40;;
3700;SDS011;1866;48.374;10.766;2023-03-23T07:00:38;100.33;;;6.17;;
3700;SDS011;1866;48.374;10.766;2023-03-23T07:03:05;100.37;;;6.00;;
3700;SDS011;1866;48.374;10.766;2023-03-23T07:05:33;99.17;;;5.87;;
3700;SDS011;1866;48.374;10.766;2023-03-23T07:08:01;100.07;;;6.03;;
3700;SDS011;1866;48.374;10.766;2023-03-23T07:10:28;105.37;;;6.23;;
3700;SDS011;1866;48.374;10.766;2023-03-23T07:12:55;99.50;;;6.10;;
3700;SDS011;1866;48.374;10.766;2023-03-23T07:15:22;100.30;;;6.33;;
3700;SDS011;1866;48.374;10.766;2023-03-23T07:17:51;101.67;;;6.20;;
3700;SDS011;1866;48.374;10.766;2023-03-23T07:20:19;104.03;;;6.37;;
3700;SDS011;1866;48.374;10.766;2023-03-23T07:22:46;100.57;;;5.90;;
3700;SDS011;1866;48.374;10.766;2023-03-23T07:25:13;100.97;;;5.67;;
3700;SDS011;1866;48.374;10.766;2023-03-23T07:27:40;102.17;;;5.70;;
3700;SDS011;1866;48.374;10.766;2023-03-23T07:30:08;100.30;;;6.27;;
3700;SDS011;1866;48.374;10.766;2023-03-23T07:32:36;99.60;;;6.00;;
3700;SDS011;1866;48.374;10.766;2023-03-23T07:35:04;100.70;;;6.27;;
3700;SDS011;1866;48.374;10.766;2023-03-23T07:37:32;99.77;;;6.17;;
3700;SDS011;1866;48.374;10.766;2023-03-23T07:39:59;100.40;;;6.17;;
3700;SDS011;1866;48.374;10.766;2023-03-23T07:42:32;100.73;;;6.10;;
3700;SDS011;1866;48.374;10.766;2023-03-23T07:45:01;103.50;;;5.80;;
3700;SDS011;1866;48.374;10.766;2023-03-23T07:47:28;100.00;;;6.10;;
3700;SDS011;1866;48.374;10.766;2023-03-23T07:49:55;101.17;;;6.27;;
3700;SDS011;1866;48.374;10.766;2023-03-23T07:52:23;101.07;;;6.17;;
3700;SDS011;1866;48.374;10.766;2023-03-23T07:54:50;103.00;;;6.50;;
3700;SDS011;1866;48.374;10.766;2023-03-23T07:57:17;101.37;;;6.63;;
3700;SDS011;1866;48.374;10.766;2023-03-23T07:59:44;103.40;;;6.80;;
3700;SDS011;1866;48.374;10.766;2023-03-23T08:02:11;101.07;;;5.80;;
3700;SDS011;1866;48.374;10.766;2023-03-23T08:04:38;102.80;;;6.57;;
3700;SDS011;1866;48.374;10.766;2023-03-23T08:07:05;100.37;;;5.70;;
3700;SDS011;1866;48.374;10.766;2023-03-23T08:09:33;101.67;;;5.53;;
3700;SDS011;1866;48.374;10.766;2023-03-23T08:12:01;102.70;;;5.97;;
3700;SDS011;1866;48.374;10.766;2023-03-23T08:14:29;100.77;;;5.50;;
3700;SDS011;1866;48.374;10.766;2023-03-23T08:16:56;105.67;;;5.70;;
3700;SDS011;1866;48.374;10.766;2023-03-23T08:19:23;102.70;;;6.10;;
3700;SDS011;1866;48.374;10.766;2023-03-23T08:21:51;102.83;;;4.97;;
3700;SDS011;1866;48.374;10.766;2023-03-23T08:24:18;98.93;;;5.07;;
3700;SDS011;1866;48.374;10.766;2023-03-23T08:26:47;99.00;;;5.00;;
3700;SDS011;1866;48.374;10.766;2023-03-23T08:29:13;100.77;;;5.33;;
3700;SDS011;1866;48.374;10.766;2023-03-23T08:31:41;102.07;;;5.50;;
3700;SDS011;1866;48.374;10.766;2023-03-23T08:34:09;98.77;;;5.13;;
3700;SDS011;1866;48.374;10.766;2023-03-23T08:36:36;99.07;;;5.20;;
3700;SDS011;1866;48.374;10.766;2023-03-23T08:39:03;100.47;;;5.07;;
3700;SDS011;1866;48.374;10.766;2023-03-23T08:41:31;99.30;;;4.80;;
3700;SDS011;1866;48.374;10.766;2023-03-23T08:43:59;98.27;;;4.80;;
3700;SDS011;1866;48.374;10.766;2023-03-23T08:46:26;98.77;;;5.00;;
3700;SDS011;1866;48.374;10.766;2023-03-23T08:48:53;98.47;;;5.17;;
3700;SDS011;1866;48.374;10.766;2023-03-23T08:51:20;99.60;;;5.20;;
3700;SDS011;1866;48.374;10.766;2023-03-23T08:53:48;101.20;;;5.60;;
3700;SDS011;1866;48.374;10.766;2023-03-23T08:56:15;99.37;;;5.27;;
3700;SDS011;1866;48.374;10.766;2023-03-23T08:58:42;98.50;;;4.83;;
3700;SDS011;1866;48.374;10.766;2023-03-23T09:01:11;99.20;;;5.10;;
3700;SDS011;1866;48.374;10.766;2023-03-23T09:03:38;99.60;;;5.30;;
3700;SDS011;1866;48.374;10.766;2023-03-23T09:06:06;98.80;;;4.87;;
3700;SDS011;1866;48.374;10.766;2023-03-23T09:08:34;99.17;;;5.13;;
3700;SDS011;1866;48.374;10.766;2023-03-23T09:11:02;98.37;;;4.97;;
3700;SDS011;1866;48.374;10.766;2023-03-23T09:13:30;105.73;;;7.93;;
3700;SDS011;1866;48.374;10.766;2023-03-23T09:15:57;100.50;;;5.97;;
3700;SDS011;1866;48.374;10.766;2023-03-23T09:18:25;102.43;;;5.20;;
3700;SDS011;1866;48.374;10.766;2023-03-23T09:20:53;100.83;;;5.77;;
3700;SDS011;1866;48.374;10.766;2023-03-23T09:23:20;106.10;;;6.90;;
3700;SDS011;1866;48.374;10.766;2023-03-23T09:25:47;103.80;;;6.60;;
3700;SDS011;1866;48.374;10.766;2023-03-23T09:28:14;102.80;;;6.30;;
3700;SDS011;1866;48.374;10.766;2023-03-23T09:30:41;105.63;;;6.00;;
3700;SDS011;1866;48.374;10.766;2023-03-23T09:33:09;103.50;;;6.93;;
3700;SDS011;1866;48.374;10.766;2023-03-23T09:35:37;104.73;;;6.50;;
3700;SDS011;1866;48.374;10.766;2023-03-23T09:38:06;108.47;;;6.77;;
3700;SDS011;1866;48.374;10.766;2023-03-23T09:40:38;108.73;;;7.27;;
3700;SDS011;1866;48.374;10.766;2023-03-23T09:43:27;108.73;;;10.20;;
3700;SDS011;1866;48.374;10.766;2023-03-23T09:46:06;103.90;;;5.93;;
3700;SDS011;1866;48.374;10.766;2023-03-23T09:48:55;100.90;;;6.00;;
3700;SDS011;1866;48.374;10.766;2023-03-23T09:51:29;99.17;;;5.30;;
3700;SDS011;1866;48.374;10.766;2023-03-23T09:54:07;101.50;;;5.23;;
3700;SDS011;1866;48.374;10.766;2023-03-23T09:56:39;98.90;;;5.10;;
3700;SDS011;1866;48.374;10.766;2023-03-23T09:59:10;98.80;;;4.70;;
3700;SDS011;1866;48.374;10.766;2023-03-23T10:01:41;98.30;;;5.20;;
3700;SDS011;1866;48.374;10.766;2023-03-23T10:04:13;98.60;;;4.97;;
3700;SDS011;1866;48.374;10.766;2023-03-23T10:06:48;97.03;;;4.67;;
3700;SDS011;1866;48.374;10.766;2023-03-23T10:09:17;101.07;;;5.27;;
3700;SDS011;1866;48.374;10.766;2023-03-23T10:11:49;98.47;;;4.67;;
3700;SDS011;1866;48.374;10.766;2023-03-23T10:14:26;98.33;;;4.90;;
3700;SDS011;1866;48.374;10.766;2023-03-23T10:17:02;98.27;;;4.80;;
3700;SDS011;1866;48.374;10.766;2023-03-23T10:19:37;98.77;;;4.77;;
3700;SDS011;1866;48.374;10.766;2023-03-23T10:22:14;98.27;;;4.93;;
3700;SDS011;1866;48.374;10.766;2023-03-23T10:24:47;99.87;;;5.30;;
3700;SDS011;1866;48.374;10.766;2023-03-23T10:27:18;103.83;;;5.43;;
3700;SDS011;1866;48.374;10.766;2023-03-23T10:29:52;99.47;;;5.00;;
3700;SDS011;1866;48.374;10.766;2023-03-23T10:32:34;97.67;;;4.73;;
3700;SDS011;1866;48.374;10.766;2023-03-23T10:35:07;99.43;;;4.90;;
3700;SDS011;1866;48.374;10.766;2023-03-23T10:37:42;106.47;;;5.33;;
3700;SDS011;1866;48.374;10.766;2023-03-23T10:40:14;101.30;;;5.93;;
3700;SDS011;1866;48.374;10.766;2023-03-23T10:42:45;98.17;;;5.00;;
3700;SDS011;1866;48.374;10.766;2023-03-23T10:45:15;98.80;;;5.00;;
3700;SDS011;1866;48.374;10.766;2023-03-23T10:47:46;101.63;;;5.27;;
3700;SDS011;1866;48.374;10.766;2023-03-23T10:50:16;98.77;;;4.90;;
3700;SDS011;1866;48.374;10.766;2023-03-23T10:52:51;98.43;;;4.93;;
3700;SDS011;1866;48.374;10.766;2023-03-23T10:55:21;98.60;;;4.77;;
3700;SDS011;1866;48.374;10.766;2023-03-23T10:57:58;99.17;;;5.00;;
3700;SDS011;1866;48.374;10.766;2023-03-23T11:00:28;99.27;;;5.03;;
3700;SDS011;1866;48.374;10.766;2023-03-23T11:03:00;98.60;;;5.00;;
3700;SDS011;1866;48.374;10.766;2023-03-23T11:05:35;98.40;;;4.97;;
3700;SDS011;1866;48.374;10.766;2023-03-23T11:08:11;98.90;;;4.90;;
3700;SDS011;1866;48.374;10.766;2023-03-23T11:10:41;99.70;;;4.90;;
3700;SDS011;1866;48.374;10.766;2023-03-23T11:13:13;99.37;;;4.90;;
3700;SDS011;1866;48.374;10.766;2023-03-23T11:15:42;102.47;;;5.20;;
3700;SDS011;1866;48.374;10.766;2023-03-23T11:18:11;101.10;;;5.03;;
3700;SDS011;1866;48.374;10.766;2023-03-23T11:20:39;103.47;;;6.63;;
3700;SDS011;1866;48.374;10.766;2023-03-23T11:23:18;100.17;;;5.07;;
3700;SDS011;1866;48.374;10.766;2023-03-23T11:25:58;99.23;;;4.80;;
3700;SDS011;1866;48.374;10.766;2023-03-23T11:28:31;98.37;;;4.87;;
3700;SDS011;1866;48.374;10.766;2023-03-23T11:31:01;98.07;;;4.80;;
3700;SDS011;1866;48.374;10.766;2023-03-23T11:33:30;101.70;;;5.60;;
3700;SDS011;1866;48.374;10.766;2023-03-23T11:36:02;97.90;;;4.70;;
3700;SDS011;1866;48.374;10.766;2023-03-23T11:38:31;99.37;;;5.00;;
3700;SDS011;1866;48.374;10.766;2023-03-23T11:41:00;99.73;;;4.90;;
3700;SDS011;1866;48.374;10.766;2023-03-23T11:43:28;101.20;;;4.90;;
3700;SDS011;1866;48.374;10.766;2023-03-23T11:46:01;98.20;;;5.00;;
3700;SDS011;1866;48.374;10.766;2023-03-23T11:48:38;97.80;;;4.50;;
3700;SDS011;1866;48.374;10.766;2023-03-23T11:51:11;97.87;;;4.83;;
3700;SDS011;1866;48.374;10.766;2023-03-23T11:53:45;98.50;;;5.20;;
3700;SDS011;1866;48.374;10.766;2023-03-23T11:56:19;97.80;;;4.80;;
3700;SDS011;1866;48.374;10.766;2023-03-23T11:58:50;97.80;;;4.60;;
3700;SDS011;1866;48.374;10.766;2023-03-23T12:01:25;98.23;;;5.13;;
3700;SDS011;1866;48.374;10.766;2023-03-23T12:04:14;99.07;;;4.80;;
3700;SDS011;1866;48.374;10.766;2023-03-23T12:07:02;98.73;;;5.40;;
3700;SDS011;1866;48.374;10.766;2023-03-23T12:09:47;99.30;;;5.50;;
3700;SDS011;1866;48.374;10.766;2023-03-23T12:12:22;98.13;;;4.90;;
3700;SDS011;1866;48.374;10.766;2023-03-23T12:14:59;99.17;;;5.10;;
3700;SDS011;1866;48.374;10.766;2023-03-23T12:17:37;101.20;;;5.03;;
3700;SDS011;1866;48.374;10.766;2023-03-23T12:20:20;101.00;;;5.00;;
3700;SDS011;1866;48.374;10.766;2023-03-23T12:23:11;99.00;;;4.87;;
3700;SDS011;1866;48.374;10.766;2023-03-23T12:26:06;98.13;;;4.93;;
3700;SDS011;1866;48.374;10.766;2023-03-23T12:28:57;98.17;;;5.00;;
3700;SDS011;1866;48.374;10.766;2023-03-23T12:31:42;102.60;;;5.10;;
3700;SDS011;1866;48.374;10.766;2023-03-23T12:34:17;97.63;;;4.70;;
3700;SDS011;1866;48.374;10.766;2023-03-23T12:36:53;99.17;;;4.70;;
3700;SDS011;1866;48.374;10.766;2023-03-23T12:39:43;98.90;;;4.73;;
3700;SDS011;1866;48.374;10.766;2023-03-23T12:42:29;112.20;;;5.87;;
3700;SDS011;1866;48.374;10.766;2023-03-23T12:45:07;109.83;;;6.87;;
3700;SDS011;1866;48.374;10.766;2023-03-23T12:47:48;99.30;;;5.30;;
3700;SDS011;1866;48.374;10.766;2023-03-23T12:50:22;101.07;;;5.10;;
3700;SDS011;1866;48.374;10.766;2023-03-23T12:52:55;99.83;;;5.27;;
3700;SDS011;1866;48.374;10.766;2023-03-23T12:55:27;98.97;;;5.20;;
3700;SDS011;1866;48.374;10.766;2023-03-23T12:58:04;98.47;;;4.80;;
3700;SDS011;1866;48.374;10.766;2023-03-23T13:00:34;99.37;;;4.80;;
3700;SDS011;1866;48.374;10.766;2023-03-23T13:03:14;98.27;;;4.70;;
3700;SDS011;1866;48.374;10.766;2023-03-23T13:05:49;98.77;;;4.80;;
3700;SDS011;1866;48.374;10.766;2023-03-23T13:08:22;98.17;;;4.50;;
3700;SDS011;1866;48.374;10.766;2023-03-23T13:10:54;98.30;;;5.20;;
3700;SDS011;1866;48.374;10.766;2023-03-23T13:13:26;98.17;;;4.80;;
3700;SDS011;1866;48.374;10.766;2023-03-23T13:16:07;98.07;;;4.70;;
3700;SDS011;1866;48.374;10.766;2023-03-23T13:18:44;98.73;;;5.00;;
3700;SDS011;1866;48.374;10.766;2023-03-23T13:21:17;99.60;;;5.07;;
3700;SDS011;1866;48.374;10.766;2023-03-23T13:23:50;100.10;;;5.37;;
3700;SDS011;1866;48.374;10.766;2023-03-23T13:26:21;98.17;;;5.00;;
3700;SDS011;1866;48.374;10.766;2023-03-23T13:28:54;101.60;;;4.70;;
3700;SDS011;1866;48.374;10.766;2023-03-23T13:31:23;97.97;;;4.57;;
3700;SDS011;1866;48.374;10.766;2023-03-23T13:33:59;99.07;;;5.03;;
3700;SDS011;1866;48.374;10.766;2023-03-23T13:36:29;99.87;;;5.10;;
3700;SDS011;1866;48.374;10.766;2023-03-23T13:38:58;98.23;;;4.80;;
3700;SDS011;1866;48.374;10.766;2023-03-23T13:41:27;99.67;;;5.13;;
3700;SDS011;1866;48.374;10.766;2023-03-23T13:44:07;97.47;;;4.83;;
3700;SDS011;1866;48.374;10.766;2023-03-23T13:46:53;100.33;;;4.97;;
3700;SDS011;1866;48.374;10.766;2023-03-23T13:49:22;99.57;;;4.93;;
3700;SDS011;1866;48.374;10.766;2023-03-23T13:52:01;99.53;;;5.30;;
3700;SDS011;1866;48.374;10.766;2023-03-23T13:54:42;97.87;;;4.63;;
3700;SDS011;1866;48.374;10.766;2023-03-23T13:57:34;99.27;;;4.97;;
3700;SDS011;1866;48.374;10.766;2023-03-23T14:00:22;97.97;;;4.93;;
3700;SDS011;1866;48.374;10.766;2023-03-23T14:03:13;97.90;;;4.53;;
3700;SDS011;1866;48.374;10.766;2023-03-23T14:05:43;99.13;;;4.83;;
3700;SDS011;1866;48.374;10.766;2023-03-23T14:08:12;98.90;;;5.27;;
3700;SDS011;1866;48.374;10.766;2023-03-23T14:10:49;101.17;;;4.80;;
3700;SDS011;1866;48.374;10.766;2023-03-23T14:13:20;97.47;;;4.67;;
3700;SDS011;1866;48.374;10.766;2023-03-23T14:15:59;97.77;;;4.80;;
3700;SDS011;1866;48.374;10.766;2023-03-23T14:18:34;98.23;;;4.97;;
3700;SDS011;1866;48.374;10.766;2023-03-23T14:21:03;100.90;;;4.87;;
3700;SDS011;1866;48.374;10.766;2023-03-23T14:23:31;99.90;;;4.83;;
3700;SDS011;1866;48.374;10.766;2023-03-23T14:26:00;106.67;;;4.90;;
3700;SDS011;1866;48.374;10.766;2023-03-23T14:28:32;98.07;;;4.70;;
3700;SDS011;1866;48.374;10.766;2023-03-23T14:31:05;103.03;;;5.93;;
3700;SDS011;1866;48.374;10.766;2023-03-23T14:33:42;98.77;;;4.80;;
3700;SDS011;1866;48.374;10.766;2023-03-23T14:36:09;97.60;;;4.80;;
3700;SDS011;1866;48.374;10.766;2023-03-23T14:38:36;99.10;;;4.70;;
3700;SDS011;1866;48.374;10.766;2023-03-23T14:41:04;98.30;;;4.80;;
3700;SDS011;1866;48.374;10.766;2023-03-23T14:43:32;101.00;;;4.80;;
3700;SDS011;1866;48.374;10.766;2023-03-23T14:46:02;97.47;;;4.70;;
3700;SDS011;1866;48.374;10.766;2023-03-23T14:48:34;98.77;;;5.10;;
3700;SDS011;1866;48.374;10.766;2023-03-23T14:51:03;101.00;;;5.50;;
3700;SDS011;1866;48.374;10.766;2023-03-23T14:53:32;98.40;;;5.20;;
3700;SDS011;1866;48.374;10.766;2023-03-23T14:56:03;99.37;;;5.27;;
3700;SDS011;1866;48.374;10.766;2023-03-23T14:58:36;99.90;;;5.37;;
3700;SDS011;1866;48.374;10.766;2023-03-23T15:01:05;99.10;;;5.00;;
3700;SDS011;1866;48.374;10.766;2023-03-23T15:03:38;98.40;;;5.30;;
3700;SDS011;1866;48.374;10.766;2023-03-23T15:06:12;97.87;;;4.80;;
3700;SDS011;1866;48.374;10.766;2023-03-23T15:08:42;97.80;;;4.80;;
3700;SDS011;1866;48.374;10.766;2023-03-23T15:11:21;120.23;;;5.90;;